Time;durP1;ratioP1;P1;durP2;ratioP2;P2;SDS_P1;SDS_P2;PMS_P1;PMS_P2;Temp;Humidity;BMP_temperature;BMP_pressure;BME280_temperature;BME280_humidity;BME280_pressure;Samples;Min_cycle;Max_cycle;Signal;HPM_P1;HPM_P2
2021/07/02 00:01:37;;;;;;;3.37;3.07;;;;;;;;;;480390;247;28349;-73
2021/07/02 00:03:39;;;;;;;2.50;2.30;;;;;;;;;;480392;247;28852;-73
2021/07/02 00:05:42;;;;;;;3.63;3.33;;;;;;;;;;480413;247;28080;-72
2021/07/02 00:07:44;;;;;;;3.80;3.27;;;;;;;;;;480382;247;27611;-73
2021/07/02 00:09:46;;;;;;;3.40;3.10;;;;;;;;;;480357;247;28680;-74
2021/07/02 00:11:48;;;;;;;3.40;3.10;;;;;;;;;;480397;246;28437;-73
2021/07/02 00:13:50;;;;;;;3.33;3.03;;;;;;;;;;480398;247;28575;-73
2021/07/02 00:15:52;;;;;;;3.27;2.97;;;;;;;;;;480393;247;27625;-73
2021/07/02 00:17:54;;;;;;;4.43;2.87;;;;;;;;;;480379;247;29347;-72
2021/07/02 00:19:56;;;;;;;3.40;3.10;;;;;;;;;;480348;247;28615;-72
2021/07/02 00:21:58;;;;;;;3.33;3.03;;;;;;;;;;480362;247;28442;-73
2021/07/02 00:24:01;;;;;;;4.30;3.83;;;;;;;;;;480387;247;28663;-73
2021/07/02 00:26:03;;;;;;;3.67;3.37;;;;;;;;;;480339;247;28545;-72
2021/07/02 00:28:05;;;;;;;3.23;2.60;;;;;;;;;;480359;247;27991;-73
2021/07/02 00:30:07;;;;;;;3.30;3.00;;;;;;;;;;480371;247;28891;-73
2021/07/02 00:32:11;;;;;;;5.80;3.30;;;;;;;;;;480399;247;28518;-73
2021/07/02 00:34:11;;;;;;;4.40;4.00;;;;;;;;;;480246;246;27907;-73
2021/07/02 00:36:13;;;;;;;3.50;3.20;;;;;;;;;;480375;247;29525;-73
2021/07/02 00:38:15;;;;;;;10.23;3.27;;;;;;;;;;480356;247;28349;-72
2021/07/02 00:40:18;;;;;;;5.17;3.13;;;;;;;;;;480400;247;28940;-73
2021/07/02 00:42:20;;;;;;;3.50;3.20;;;;;;;;;;480381;247;28138;-72
2021/07/02 00:44:22;;;;;;;3.10;2.90;;;;;;;;;;480330;247;28885;-73
2021/07/02 00:46:24;;;;;;;3.63;3.33;;;;;;;;;;480106;247;28657;-72
2021/07/02 00:48:26;;;;;;;2.90;2.70;;;;;;;;;;480371;247;28013;-73
2021/07/02 00:50:28;;;;;;;3.60;3.00;;;;;;;;;;480370;247;29378;-73
2021/07/02 00:52:30;;;;;;;3.43;2.90;;;;;;;;;;480375;247;28348;-73
2021/07/02 00:54:32;;;;;;;3.20;2.90;;;;;;;;;;480380;247;28908;-72
2021/07/02 00:56:35;;;;;;;3.17;2.87;;;;;;;;;;480362;247;28476;-72
2021/07/02 00:58:37;;;;;;;3.43;3.10;;;;;;;;;;480408;247;28474;-73
2021/07/02 01:00:39;;;;;;;3.43;3.13;;;;;;;;;;480350;247;28467;-73
2021/07/02 01:02:41;;;;;;;4.10;3.17;;;;;;;;;;480366;247;28604;-73
2021/07/02 01:04:43;;;;;;;3.50;3.20;;;;;;;;;;480357;247;28852;-73
2021/07/02 01:06:45;;;;;;;3.13;2.93;;;;;;;;;;480396;247;28337;-72
2021/07/02 01:08:47;;;;;;;3.47;3.17;;;;;;;;;;480365;247;29057;-73
2021/07/02 01:10:49;;;;;;;3.67;3.33;;;;;;;;;;480364;247;28601;-73
2021/07/02 01:12:52;;;;;;;3.20;2.90;;;;;;;;;;480365;247;28406;-73
2021/07/02 01:14:54;;;;;;;3.17;2.87;;;;;;;;;;480368;247;28336;-73
2021/07/02 01:16:56;;;;;;;4.40;3.40;;;;;;;;;;480375;247;28836;-73
2021/07/02 01:18:58;;;;;;;3.73;3.40;;;;;;;;;;480386;247;28210;-73
2021/07/02 01:21:00;;;;;;;3.13;2.87;;;;;;;;;;480109;247;28864;-73
2021/07/02 01:23:02;;;;;;;4.83;3.43;;;;;;;;;;480389;247;28568;-73
2021/07/02 01:25:04;;;;;;;3.70;3.40;;;;;;;;;;480398;247;28538;-73
2021/07/02 01:27:06;;;;;;;3.57;3.23;;;;;;;;;;480360;247;28344;-73
2021/07/02 01:29:09;;;;;;;3.87;3.37;;;;;;;;;;480383;247;28568;-73
2021/07/02 01:31:11;;;;;;;3.77;3.47;;;;;;;;;;480332;247;28452;-73
2021/07/02 01:33:13;;;;;;;3.43;3.13;;;;;;;;;;480378;247;28993;-73
2021/07/02 01:35:16;;;;;;;4.30;3.40;;;;;;;;;;480353;247;28276;-72
2021/07/02 01:37:17;;;;;;;3.93;3.53;;;;;;;;;;480250;247;28712;-72
2021/07/02 01:39:19;;;;;;;3.07;2.87;;;;;;;;;;480358;247;28480;-73
2021/07/02 01:41:21;;;;;;;3.93;3.40;;;;;;;;;;480415;247;28378;-73
2021/07/02 01:43:26;;;;;;;4.80;3.67;;;;;;;;;;480373;247;28253;-73
2021/07/02 01:45:25;;;;;;;4.00;3.60;;;;;;;;;;480219;247;28388;-72
2021/07/02 01:47:28;;;;;;;3.50;3.20;;;;;;;;;;480361;247;28181;-72
2021/07/02 01:49:30;;;;;;;4.07;3.50;;;;;;;;;;480401;247;28360;-73
2021/07/02 01:51:32;;;;;;;3.60;3.30;;;;;;;;;;480382;247;28742;-73
2021/07/02 01:53:34;;;;;;;4.07;3.57;;;;;;;;;;480361;246;28581;-73
2021/07/02 01:55:36;;;;;;;3.60;3.30;;;;;;;;;;480357;247;28572;-72
2021/07/02 01:57:38;;;;;;;4.50;3.60;;;;;;;;;;480324;247;28603;-72
2021/07/02 01:59:40;;;;;;;3.17;2.87;;;;;;;;;;480379;247;28475;-73
2021/07/02 02:01:42;;;;;;;3.00;2.80;;;;;;;;;;480348;247;28672;-73
2021/07/02 02:03:45;;;;;;;3.60;3.30;;;;;;;;;;480358;247;28459;-72
2021/07/02 02:05:48;;;;;;;4.30;3.90;;;;;;;;;;480371;247;28666;-73
2021/07/02 02:07:49;;;;;;;4.10;3.70;;;;;;;;;;480356;246;28425;-72
2021/07/02 02:09:53;;;;;;;3.53;3.23;;;;;;;;;;480366;247;28308;-73
2021/07/02 02:11:53;;;;;;;3.77;3.37;;;;;;;;;;480231;247;27974;-72
2021/07/02 02:13:55;;;;;;;4.03;3.63;;;;;;;;;;480366;247;28370;-73
2021/07/02 02:15:57;;;;;;;3.77;3.40;;;;;;;;;;480370;247;28174;-73
2021/07/02 02:18:00;;;;;;;3.97;3.67;;;;;;;;;;480403;246;28523;-73
2021/07/02 02:20:01;;;;;;;3.93;3.53;;;;;;;;;;480349;247;29045;-73
2021/07/02 02:22:04;;;;;;;3.30;3.00;;;;;;;;;;480368;247;28222;-73
2021/07/02 02:24:06;;;;;;;4.53;3.20;;;;;;;;;;480411;242;28948;-73
2021/07/02 02:26:08;;;;;;;3.60;3.30;;;;;;;;;;480400;247;28231;-73
2021/07/02 02:28:10;;;;;;;3.80;3.40;;;;;;;;;;480358;247;28390;-72
2021/07/02 02:30:12;;;;;;;3.80;3.40;;;;;;;;;;480378;247;28328;-73
2021/07/02 02:32:14;;;;;;;3.40;3.10;;;;;;;;;;480408;247;28549;-73
2021/07/02 02:34:16;;;;;;;4.30;3.50;;;;;;;;;;480388;247;29106;-73
2021/07/02 02:36:18;;;;;;;4.50;3.80;;;;;;;;;;480369;247;28398;-73
2021/07/02 02:38:21;;;;;;;3.90;3.47;;;;;;;;;;480404;247;28608;-73
2021/07/02 02:40:23;;;;;;;4.00;3.70;;;;;;;;;;480380;247;28299;-72
2021/07/02 02:42:25;;;;;;;3.73;3.37;;;;;;;;;;480383;247;28029;-73
2021/07/02 02:44:27;;;;;;;4.17;3.77;;;;;;;;;;480328;247;28246;-72
2021/07/02 02:46:29;;;;;;;4.27;3.67;;;;;;;;;;480345;247;28491;-73
2021/07/02 02:48:31;;;;;;;4.27;3.37;;;;;;;;;;480387;247;29313;-73
2021/07/02 02:50:33;;;;;;;3.70;3.40;;;;;;;;;;480411;247;28395;-73
2021/07/02 02:52:35;;;;;;;5.83;4.30;;;;;;;;;;480391;247;28587;-73
2021/07/02 02:54:38;;;;;;;4.37;3.97;;;;;;;;;;480399;247;28335;-73
2021/07/02 02:57:25;;;;;;;4.07;3.67;;;;;;;;;;480381;247;28053;-72
2021/07/02 02:58:42;;;;;;;3.50;3.20;;;;;;;;;;473318;247;28377;-72
2021/07/02 03:00:44;;;;;;;4.13;3.73;;;;;;;;;;480392;247;28083;-73
2021/07/02 03:02:46;;;;;;;4.43;3.77;;;;;;;;;;480374;247;28227;-73
2021/07/02 03:04:48;;;;;;;4.03;3.63;;;;;;;;;;480415;247;27953;-73
2021/07/02 03:06:50;;;;;;;4.30;3.87;;;;;;;;;;480381;247;28225;-73
2021/07/02 03:08:52;;;;;;;4.23;3.73;;;;;;;;;;480401;247;28139;-73
2021/07/02 03:10:54;;;;;;;5.13;4.43;;;;;;;;;;480389;247;28536;-73
2021/07/02 03:12:57;;;;;;;4.00;3.70;;;;;;;;;;480373;247;27804;-73
2021/07/02 03:14:59;;;;;;;4.83;4.07;;;;;;;;;;480360;247;27687;-73
2021/07/02 03:17:01;;;;;;;4.33;3.70;;;;;;;;;;480387;247;28097;-72
2021/07/02 03:19:03;;;;;;;4.47;4.03;;;;;;;;;;480388;247;28165;-73
2021/07/02 03:21:05;;;;;;;4.13;3.77;;;;;;;;;;480400;247;27994;-74
2021/07/02 03:23:07;;;;;;;5.03;4.20;;;;;;;;;;480374;247;27926;-73
2021/07/02 03:25:09;;;;;;;6.20;4.63;;;;;;;;;;480406;247;29477;-73
2021/07/02 03:27:11;;;;;;;5.40;4.90;;;;;;;;;;480408;247;28029;-73
2021/07/02 03:29:14;;;;;;;5.53;4.40;;;;;;;;;;480393;247;27927;-73
2021/07/02 03:31:16;;;;;;;6.33;4.60;;;;;;;;;;480388;247;28158;-73
2021/07/02 03:33:18;;;;;;;4.40;3.87;;;;;;;;;;480398;247;27778;-73
2021/07/02 03:35:20;;;;;;;4.77;4.27;;;;;;;;;;480425;247;28133;-72
2021/07/02 03:37:22;;;;;;;5.23;4.27;;;;;;;;;;480384;245;28119;-73
2021/07/02 03:39:24;;;;;;;5.40;4.60;;;;;;;;;;480368;247;28612;-73
2021/07/02 03:41:26;;;;;;;4.90;3.90;;;;;;;;;;480401;247;28247;-73
2021/07/02 03:43:28;;;;;;;5.10;4.60;;;;;;;;;;480378;247;28499;-72
2021/07/02 03:45:31;;;;;;;5.13;4.20;;;;;;;;;;480418;247;27896;-73
2021/07/02 03:47:33;;;;;;;4.87;4.27;;;;;;;;;;480416;247;28005;-73
2021/07/02 03:49:35;;;;;;;4.93;4.30;;;;;;;;;;480414;247;28157;-72
2021/07/02 03:51:37;;;;;;;5.13;4.63;;;;;;;;;;480194;247;28066;-73
2021/07/02 03:53:39;;;;;;;6.20;4.50;;;;;;;;;;480394;247;27914;-73
2021/07/02 03:55:41;;;;;;;4.83;4.07;;;;;;;;;;480411;247;28251;-73
2021/07/02 03:57:43;;;;;;;5.60;4.70;;;;;;;;;;480371;247;28592;-73
2021/07/02 03:59:45;;;;;;;5.30;4.80;;;;;;;;;;480386;247;27984;-73
2021/07/02 04:01:47;;;;;;;8.33;5.47;;;;;;;;;;480408;247;28537;-72
2021/07/02 04:03:50;;;;;;;6.20;5.17;;;;;;;;;;480386;247;28208;-73
2021/07/02 04:05:52;;;;;;;5.93;5.17;;;;;;;;;;480400;247;27943;-73
2021/07/02 04:07:54;;;;;;;7.43;5.47;;;;;;;;;;480393;247;28062;-73
2021/07/02 04:09:56;;;;;;;5.80;5.20;;;;;;;;;;480409;247;28118;-73
2021/07/02 04:11:58;;;;;;;5.30;4.80;;;;;;;;;;480368;247;28163;-73
2021/07/02 04:14:00;;;;;;;5.37;4.83;;;;;;;;;;480302;247;27918;-72
2021/07/02 04:16:02;;;;;;;6.00;4.77;;;;;;;;;;480258;247;28911;-72
2021/07/02 04:18:04;;;;;;;5.53;4.70;;;;;;;;;;480276;247;27982;-72
2021/07/02 04:20:07;;;;;;;5.87;4.70;;;;;;;;;;480291;247;28718;-73
2021/07/02 04:22:09;;;;;;;4.67;4.27;;;;;;;;;;480151;247;28118;-74
2021/07/02 04:24:11;;;;;;;5.40;4.67;;;;;;;;;;480252;246;28556;-72
2021/07/02 04:26:13;;;;;;;5.23;4.33;;;;;;;;;;480344;247;28108;-73
2021/07/02 04:28:15;;;;;;;5.70;4.60;;;;;;;;;;480322;247;28182;-73
2021/07/02 04:30:17;;;;;;;5.60;4.40;;;;;;;;;;480350;247;28357;-73
2021/07/02 04:32:19;;;;;;;4.50;4.10;;;;;;;;;;480405;247;27953;-72
2021/07/02 04:34:21;;;;;;;5.70;4.33;;;;;;;;;;480398;247;28806;-73
2021/07/02 04:36:24;;;;;;;4.60;4.20;;;;;;;;;;480391;247;30365;-73
2021/07/02 04:38:26;;;;;;;6.40;5.10;;;;;;;;;;480373;247;28500;-73
2021/07/02 04:40:28;;;;;;;4.53;4.10;;;;;;;;;;480363;247;28016;-73
2021/07/02 04:42:30;;;;;;;4.80;4.23;;;;;;;;;;480364;247;28273;-73
2021/07/02 04:44:32;;;;;;;4.63;4.23;;;;;;;;;;480394;247;28488;-73
2021/07/02 04:46:34;;;;;;;5.03;4.47;;;;;;;;;;480386;247;28461;-73
2021/07/02 04:48:36;;;;;;;5.37;4.53;;;;;;;;;;480379;247;28352;-73
2021/07/02 04:50:38;;;;;;;5.43;4.50;;;;;;;;;;480366;247;28360;-73
2021/07/02 04:52:40;;;;;;;4.77;4.33;;;;;;;;;;480394;247;28521;-72
2021/07/02 04:54:43;;;;;;;4.77;4.37;;;;;;;;;;480349;247;28414;-73
2021/07/02 04:56:47;;;;;;;4.93;4.43;;;;;;;;;;480345;247;28737;-73
2021/07/02 04:58:54;;;;;;;5.63;4.40;;;;;;;;;;480382;247;28324;-72
2021/07/02 05:00:52;;;;;;;4.80;4.27;;;;;;;;;;480054;247;28551;-73
2021/07/02 05:02:54;;;;;;;5.40;4.70;;;;;;;;;;480386;247;28485;-73
2021/07/02 05:04:56;;;;;;;5.33;4.20;;;;;;;;;;480371;247;28356;-72
2021/07/02 05:06:58;;;;;;;5.87;4.97;;;;;;;;;;480369;247;29184;-72
2021/07/02 05:09:00;;;;;;;6.27;5.00;;;;;;;;;;480350;247;28647;-72
2021/07/02 05:11:02;;;;;;;5.13;4.20;;;;;;;;;;480365;247;28295;-73
2021/07/02 05:13:04;;;;;;;8.73;4.33;;;;;;;;;;480333;247;28266;-73
2021/07/02 05:15:06;;;;;;;5.57;5.00;;;;;;;;;;480377;247;28336;-73
2021/07/02 05:17:09;;;;;;;5.23;4.70;;;;;;;;;;480363;247;28677;-73
2021/07/02 05:19:11;;;;;;;5.23;4.70;;;;;;;;;;480396;247;28112;-73
2021/07/02 05:21:13;;;;;;;5.27;4.50;;;;;;;;;;480335;247;29103;-73
2021/07/02 05:23:15;;;;;;;5.20;4.70;;;;;;;;;;480352;247;28279;-73
2021/07/02 05:25:18;;;;;;;5.23;4.73;;;;;;;;;;480362;247;28749;-73
2021/07/02 05:27:19;;;;;;;5.63;4.33;;;;;;;;;;480291;247;27707;-73
2021/07/02 05:29:21;;;;;;;5.00;4.37;;;;;;;;;;480393;247;27656;-73
2021/07/02 05:31:23;;;;;;;5.43;4.40;;;;;;;;;;480354;247;27935;-73
2021/07/02 05:33:26;;;;;;;5.23;4.67;;;;;;;;;;480372;247;28567;-73
2021/07/02 05:35:28;;;;;;;4.43;4.03;;;;;;;;;;480392;247;27629;-73
2021/07/02 05:37:30;;;;;;;5.50;4.67;;;;;;;;;;480379;247;27495;-73
2021/07/02 05:39:32;;;;;;;6.00;4.67;;;;;;;;;;480364;247;27638;-73
2021/07/02 05:41:34;;;;;;;5.50;4.83;;;;;;;;;;480389;247;27481;-72
2021/07/02 05:43:36;;;;;;;6.40;5.27;;;;;;;;;;480397;247;28016;-73
2021/07/02 05:45:40;;;;;;;5.43;4.93;;;;;;;;;;480394;247;28936;-73
2021/07/02 05:47:46;;;;;;;6.23;4.50;;;;;;;;;;480261;247;28467;-73
2021/07/02 05:49:42;;;;;;;8.07;5.57;;;;;;;;;;479936;247;27591;-73
2021/07/02 05:51:45;;;;;;;7.13;5.60;;;;;;;;;;480377;247;27523;-73
2021/07/02 05:53:47;;;;;;;5.47;4.80;;;;;;;;;;480309;247;27621;-73
2021/07/02 05:55:49;;;;;;;6.83;4.87;;;;;;;;;;480201;247;27732;-73
2021/07/02 05:57:51;;;;;;;6.20;5.57;;;;;;;;;;479167;247;27551;-73
2021/07/02 05:59:53;;;;;;;6.20;4.80;;;;;;;;;;479092;247;27673;-73
2021/07/02 06:01:55;;;;;;;6.60;5.90;;;;;;;;;;479853;247;27753;-73
2021/07/02 06:03:57;;;;;;;6.87;5.07;;;;;;;;;;480403;247;28032;-73
2021/07/02 06:06:00;;;;;;;5.20;4.70;;;;;;;;;;480395;247;27918;-73
2021/07/02 06:08:01;;;;;;;5.57;5.00;;;;;;;;;;480398;247;27758;-73
2021/07/02 06:10:04;;;;;;;5.67;5.07;;;;;;;;;;480401;247;27659;-72
2021/07/02 06:12:06;;;;;;;5.97;5.23;;;;;;;;;;480424;247;28515;-73
2021/07/02 06:14:08;;;;;;;6.83;6.13;;;;;;;;;;480384;247;27661;-73
2021/07/02 06:16:10;;;;;;;5.87;5.27;;;;;;;;;;480389;247;28930;-73
2021/07/02 06:18:12;;;;;;;7.40;6.10;;;;;;;;;;480378;247;28068;-73
2021/07/02 06:20:14;;;;;;;5.73;5.13;;;;;;;;;;480389;247;28148;-73
2021/07/02 06:22:16;;;;;;;6.67;5.50;;;;;;;;;;480391;247;27547;-73
2021/07/02 06:24:18;;;;;;;6.70;6.00;;;;;;;;;;480339;247;28007;-73
2021/07/02 06:26:21;;;;;;;6.57;5.83;;;;;;;;;;480390;247;27531;-72
2021/07/02 06:28:23;;;;;;;9.57;6.63;;;;;;;;;;480383;247;28252;-73
2021/07/02 06:30:25;;;;;;;7.00;6.30;;;;;;;;;;480410;247;27538;-73
2021/07/02 06:32:27;;;;;;;8.50;6.13;;;;;;;;;;480400;247;28242;-73
2021/07/02 06:34:29;;;;;;;7.90;6.17;;;;;;;;;;480391;247;27622;-73
2021/07/02 06:36:31;;;;;;;6.07;5.47;;;;;;;;;;480402;247;28769;-73
2021/07/02 06:38:33;;;;;;;7.40;5.97;;;;;;;;;;480393;247;27646;-74
2021/07/02 06:40:35;;;;;;;7.13;5.83;;;;;;;;;;480374;247;27603;-73
2021/07/02 06:42:37;;;;;;;6.73;6.03;;;;;;;;;;480384;247;28006;-73
2021/07/02 06:44:40;;;;;;;7.93;6.77;;;;;;;;;;480388;247;27948;-73
2021/07/02 06:46:42;;;;;;;6.63;5.93;;;;;;;;;;480398;247;27502;-73
2021/07/02 06:48:44;;;;;;;8.13;6.20;;;;;;;;;;480421;247;27535;-73
2021/07/02 06:50:46;;;;;;;6.27;5.47;;;;;;;;;;480425;247;27514;-73
2021/07/02 06:52:48;;;;;;;10.83;7.03;;;;;;;;;;480383;243;27538;-73
2021/07/02 06:54:50;;;;;;;9.50;6.27;;;;;;;;;;480385;247;27880;-73
2021/07/02 06:57:07;;;;;;;7.60;6.20;;;;;;;;;;480429;247;27566;-73
2021/07/02 06:59:03;;;;;;;8.30;7.10;;;;;;;;;;479709;247;27556;-72
2021/07/02 07:01:05;;;;;;;8.37;6.33;;;;;;;;;;480384;247;27951;-73
2021/07/02 07:03:08;;;;;;;8.47;6.63;;;;;;;;;;480359;247;27589;-73
2021/07/02 07:05:10;;;;;;;6.70;5.80;;;;;;;;;;480414;247;27597;-73
2021/07/02 07:07:12;;;;;;;7.87;6.37;;;;;;;;;;480383;247;27583;-73
2021/07/02 07:09:14;;;;;;;8.63;7.70;;;;;;;;;;480378;247;27747;-73
2021/07/02 07:11:16;;;;;;;8.67;6.40;;;;;;;;;;480387;247;27555;-73
2021/07/02 07:13:18;;;;;;;8.50;6.60;;;;;;;;;;480398;247;27495;-73
2021/07/02 07:15:20;;;;;;;7.40;6.07;;;;;;;;;;480400;247;27499;-73
2021/07/02 07:17:22;;;;;;;8.77;6.80;;;;;;;;;;480374;247;27593;-73
2021/07/02 07:19:27;;;;;;;9.20;6.93;;;;;;;;;;480414;247;27595;-73
2021/07/02 07:21:27;;;;;;;9.03;7.23;;;;;;;;;;480230;247;27499;-73
2021/07/02 07:23:29;;;;;;;7.53;6.27;;;;;;;;;;480409;247;27952;-73
2021/07/02 07:25:31;;;;;;;9.10;6.63;;;;;;;;;;480400;247;27550;-73
2021/07/02 07:27:33;;;;;;;9.50;6.87;;;;;;;;;;480408;247;27880;-73
2021/07/02 07:29:35;;;;;;;7.50;6.60;;;;;;;;;;480418;247;27545;-73
2021/07/02 07:31:37;;;;;;;7.70;6.17;;;;;;;;;;480414;247;27558;-72
2021/07/02 07:33:43;;;;;;;7.43;6.03;;;;;;;;;;480401;247;27546;-73
2021/07/02 07:35:43;;;;;;;7.30;6.53;;;;;;;;;;480122;247;27546;-73
2021/07/02 07:37:44;;;;;;;8.10;6.53;;;;;;;;;;480162;247;27542;-73
2021/07/02 07:39:46;;;;;;;6.90;6.20;;;;;;;;;;480307;247;27548;-73
2021/07/02 07:41:48;;;;;;;7.03;6.30;;;;;;;;;;480415;247;27532;-73
2021/07/02 07:43:50;;;;;;;7.30;6.50;;;;;;;;;;480424;247;27545;-73
2021/07/02 07:45:52;;;;;;;8.23;6.90;;;;;;;;;;480381;247;27543;-73
2021/07/02 07:47:54;;;;;;;9.73;7.07;;;;;;;;;;480404;247;27580;-73
2021/07/02 07:49:56;;;;;;;7.17;6.43;;;;;;;;;;480401;247;27605;-73
2021/07/02 07:52:45;;;;;;;7.73;6.77;;;;;;;;;;480374;247;27534;-73
2021/07/02 07:54:03;;;;;;;7.63;6.40;;;;;;;;;;474142;247;27998;-73
2021/07/02 07:56:05;;;;;;;7.80;7.00;;;;;;;;;;480407;247;27610;-73
2021/07/02 07:58:08;;;;;;;8.40;6.27;;;;;;;;;;480366;247;27497;-73
2021/07/02 08:00:10;;;;;;;6.73;6.13;;;;;;;;;;480394;247;27491;-73
2021/07/02 08:02:12;;;;;;;11.00;6.97;;;;;;;;;;480390;247;27517;-73
2021/07/02 08:04:14;;;;;;;6.80;6.10;;;;;;;;;;480402;247;27533;-74
2021/07/02 08:06:16;;;;;;;6.43;5.70;;;;;;;;;;480402;247;27904;-72
2021/07/02 08:08:18;;;;;;;7.73;5.80;;;;;;;;;;480349;247;27558;-73
2021/07/02 08:10:20;;;;;;;9.97;6.57;;;;;;;;;;480397;247;27582;-73
2021/07/02 08:12:22;;;;;;;9.13;6.17;;;;;;;;;;480389;247;27574;-73
2021/07/02 08:14:25;;;;;;;8.73;6.83;;;;;;;;;;480394;247;27578;-73
2021/07/02 08:16:27;;;;;;;8.63;7.33;;;;;;;;;;480340;247;27531;-73
2021/07/02 08:18:31;;;;;;;6.30;5.70;;;;;;;;;;480326;247;27557;-73
2021/07/02 08:20:31;;;;;;;7.83;6.33;;;;;;;;;;480293;247;27668;-74
2021/07/02 08:22:33;;;;;;;7.50;6.20;;;;;;;;;;480382;242;27545;-73
2021/07/02 08:24:36;;;;;;;6.50;5.80;;;;;;;;;;480333;247;27593;-73
2021/07/02 08:26:37;;;;;;;8.33;6.00;;;;;;;;;;480295;247;27676;-73
2021/07/02 08:31:00;;;;;;;6.73;6.13;;;;;;;;;;480386;247;27512;-74
2021/07/02 08:33:02;;;;;;;6.50;5.90;;;;;;;;;;480385;247;28067;-74
2021/07/02 08:35:04;;;;;;;7.13;6.07;;;;;;;;;;480371;247;27530;-73
2021/07/02 08:37:06;;;;;;;7.73;6.63;;;;;;;;;;480363;247;27973;-73
2021/07/02 08:39:08;;;;;;;7.63;6.63;;;;;;;;;;480394;247;27521;-73
2021/07/02 08:41:13;;;;;;;6.20;5.40;;;;;;;;;;480327;247;27945;-73
2021/07/02 08:43:12;;;;;;;6.80;6.10;;;;;;;;;;480217;247;27510;-73
2021/07/02 08:45:14;;;;;;;6.60;5.97;;;;;;;;;;480375;247;27621;-73
2021/07/02 08:47:17;;;;;;;8.30;6.70;;;;;;;;;;480360;247;27507;-74
2021/07/02 08:49:19;;;;;;;6.10;5.50;;;;;;;;;;480394;247;27500;-73
2021/07/02 08:51:21;;;;;;;6.07;5.47;;;;;;;;;;480375;247;27508;-74
2021/07/02 08:53:23;;;;;;;5.73;5.13;;;;;;;;;;480369;247;27622;-74
2021/07/02 08:55:25;;;;;;;6.40;5.30;;;;;;;;;;480379;247;27609;-74
2021/07/02 08:57:27;;;;;;;6.93;5.83;;;;;;;;;;480383;247;27628;-73
2021/07/02 08:59:29;;;;;;;8.33;5.67;;;;;;;;;;480394;247;27613;-73
2021/07/02 09:01:31;;;;;;;5.70;5.13;;;;;;;;;;480360;247;27579;-74
2021/07/02 09:03:36;;;;;;;6.47;5.67;;;;;;;;;;480381;247;27649;-74
2021/07/02 09:05:36;;;;;;;6.90;5.67;;;;;;;;;;479989;247;27527;-73
2021/07/02 09:07:38;;;;;;;6.20;5.60;;;;;;;;;;480342;247;27908;-73
2021/07/02 09:09:40;;;;;;;5.77;5.13;;;;;;;;;;480345;247;27554;-73
2021/07/02 09:11:42;;;;;;;7.43;6.03;;;;;;;;;;480388;247;27558;-73
2021/07/02 09:13:44;;;;;;;5.50;5.00;;;;;;;;;;480376;247;27630;-74
2021/07/02 09:15:46;;;;;;;6.03;5.50;;;;;;;;;;480412;247;27604;-73
2021/07/02 09:17:48;;;;;;;5.47;4.90;;;;;;;;;;480419;247;27595;-73
2021/07/02 09:19:50;;;;;;;7.10;5.53;;;;;;;;;;480375;247;27561;-74
2021/07/02 09:21:53;;;;;;;7.20;5.43;;;;;;;;;;480386;247;27614;-73
2021/07/02 09:23:58;;;;;;;5.50;4.93;;;;;;;;;;480393;247;27554;-73
2021/07/02 09:25:57;;;;;;;6.00;5.17;;;;;;;;;;480166;247;27606;-74
2021/07/02 09:27:59;;;;;;;7.40;5.37;;;;;;;;;;480411;247;27543;-74
2021/07/02 09:30:02;;;;;;;6.77;6.07;;;;;;;;;;480370;247;27555;-73
2021/07/02 09:32:03;;;;;;;8.47;6.47;;;;;;;;;;480369;247;27622;-74
2021/07/02 09:34:05;;;;;;;6.27;5.67;;;;;;;;;;480413;247;27606;-73
2021/07/02 09:36:09;;;;;;;6.13;4.83;;;;;;;;;;480381;247;27610;-73
2021/07/02 09:38:10;;;;;;;8.47;6.47;;;;;;;;;;480133;247;27514;-74
2021/07/02 09:40:12;;;;;;;7.40;6.60;;;;;;;;;;480419;247;27602;-74
2021/07/02 09:42:14;;;;;;;6.27;5.63;;;;;;;;;;480436;247;27492;-73
2021/07/02 09:44:16;;;;;;;6.63;6.00;;;;;;;;;;480424;247;27607;-73
2021/07/02 09:46:18;;;;;;;7.50;6.00;;;;;;;;;;480426;247;27592;-74
2021/07/02 09:48:20;;;;;;;6.80;5.83;;;;;;;;;;480411;247;27628;-73
2021/07/02 09:50:24;;;;;;;7.57;5.97;;;;;;;;;;480396;247;27563;-74
2021/07/02 09:52:24;;;;;;;7.30;6.07;;;;;;;;;;480309;247;27558;-74
2021/07/02 09:54:26;;;;;;;6.57;5.90;;;;;;;;;;480372;247;27507;-74
2021/07/02 09:56:28;;;;;;;6.20;5.60;;;;;;;;;;480408;247;27540;-74
2021/07/02 09:58:31;;;;;;;7.73;6.37;;;;;;;;;;480396;247;27579;-74
2021/07/02 10:00:33;;;;;;;6.60;5.83;;;;;;;;;;480423;247;27520;-74
2021/07/02 10:02:35;;;;;;;6.87;6.17;;;;;;;;;;480411;242;27628;-74
2021/07/02 10:04:37;;;;;;;6.43;5.73;;;;;;;;;;480393;246;27498;-73
2021/07/02 10:06:39;;;;;;;6.43;5.67;;;;;;;;;;480395;247;27558;-74
2021/07/02 10:08:41;;;;;;;7.47;5.87;;;;;;;;;;480393;247;27658;-74
2021/07/02 10:10:43;;;;;;;5.87;5.37;;;;;;;;;;480379;247;27543;-74
2021/07/02 10:12:45;;;;;;;6.50;5.67;;;;;;;;;;480401;247;27550;-73
2021/07/02 10:14:47;;;;;;;7.17;6.30;;;;;;;;;;480388;247;27539;-74
2021/07/02 10:16:50;;;;;;;6.80;6.10;;;;;;;;;;480407;247;27770;-74
2021/07/02 10:18:52;;;;;;;8.70;7.10;;;;;;;;;;480397;247;27619;-73
2021/07/02 10:20:54;;;;;;;6.90;6.20;;;;;;;;;;480385;247;27565;-73
2021/07/02 10:22:56;;;;;;;7.00;6.30;;;;;;;;;;480405;247;27610;-73
2021/07/02 10:24:58;;;;;;;8.23;6.00;;;;;;;;;;480396;247;27546;-73
2021/07/02 10:27:00;;;;;;;6.70;6.07;;;;;;;;;;480419;247;27533;-73
2021/07/02 10:29:02;;;;;;;7.60;6.27;;;;;;;;;;480404;247;27668;-73
2021/07/02 10:31:07;;;;;;;6.93;6.23;;;;;;;;;;480387;247;27551;-73
2021/07/02 10:33:06;;;;;;;7.87;6.00;;;;;;;;;;480225;247;27524;-73
2021/07/02 10:35:09;;;;;;;7.20;6.13;;;;;;;;;;480395;247;27504;-73
2021/07/02 10:37:11;;;;;;;7.90;5.87;;;;;;;;;;480381;247;27519;-73
2021/07/02 10:39:13;;;;;;;7.40;6.47;;;;;;;;;;480388;247;27567;-73
2021/07/02 10:41:15;;;;;;;7.93;6.30;;;;;;;;;;480394;247;27547;-73
2021/07/02 10:43:17;;;;;;;8.70;6.00;;;;;;;;;;480396;247;27507;-73
2021/07/02 10:45:19;;;;;;;8.20;6.30;;;;;;;;;;480396;247;27514;-73
2021/07/02 10:47:21;;;;;;;7.60;5.80;;;;;;;;;;480351;242;27492;-74
2021/07/02 10:49:23;;;;;;;7.13;6.43;;;;;;;;;;480371;247;27611;-74
2021/07/02 10:51:26;;;;;;;10.50;6.83;;;;;;;;;;480385;242;27579;-73
2021/07/02 10:53:28;;;;;;;8.00;6.67;;;;;;;;;;480352;247;27503;-73
2021/07/02 10:55:30;;;;;;;8.20;6.77;;;;;;;;;;480344;247;27503;-73
2021/07/02 10:57:32;;;;;;;10.43;7.17;;;;;;;;;;480373;247;27887;-73
2021/07/02 10:59:34;;;;;;;7.90;7.10;;;;;;;;;;480387;247;27550;-74
2021/07/02 11:01:36;;;;;;;7.23;6.53;;;;;;;;;;480363;247;27598;-73
2021/07/02 11:03:38;;;;;;;8.00;6.90;;;;;;;;;;480386;247;27629;-73
2021/07/02 11:05:40;;;;;;;11.27;6.77;;;;;;;;;;480394;247;27568;-73
2021/07/02 11:07:42;;;;;;;7.57;6.77;;;;;;;;;;480416;247;27534;-73
2021/07/02 11:09:45;;;;;;;7.30;6.27;;;;;;;;;;480384;247;27665;-73
2021/07/02 11:11:47;;;;;;;7.87;6.50;;;;;;;;;;480380;247;27622;-73
2021/07/02 11:13:49;;;;;;;8.07;7.23;;;;;;;;;;480397;247;27632;-73
2021/07/02 11:15:51;;;;;;;7.10;6.33;;;;;;;;;;480430;247;27609;-73
2021/07/02 11:17:53;;;;;;;7.80;6.83;;;;;;;;;;480407;247;27554;-73
2021/07/02 11:19:55;;;;;;;7.20;5.80;;;;;;;;;;480414;247;27531;-73
2021/07/02 11:21:57;;;;;;;8.00;6.43;;;;;;;;;;480423;247;27543;-73
2021/07/02 11:23:59;;;;;;;7.67;6.53;;;;;;;;;;480410;247;27566;-73
2021/07/02 11:26:03;;;;;;;7.10;6.07;;;;;;;;;;480434;247;27546;-73
2021/07/02 11:28:08;;;;;;;7.43;6.20;;;;;;;;;;480302;247;27526;-73
2021/07/02 11:30:09;;;;;;;6.30;5.70;;;;;;;;;;479828;247;27502;-73
2021/07/02 11:32:08;;;;;;;5.50;4.93;;;;;;;;;;480169;247;27583;-73
2021/07/02 11:34:10;;;;;;;7.43;6.67;;;;;;;;;;480413;247;27535;-73
2021/07/02 11:36:12;;;;;;;6.50;5.70;;;;;;;;;;480408;247;27566;-74
2021/07/02 11:38:14;;;;;;;5.37;4.87;;;;;;;;;;480405;247;27508;-73
2021/07/02 11:40:16;;;;;;;7.83;5.93;;;;;;;;;;480385;247;27504;-73
2021/07/02 11:42:18;;;;;;;8.73;5.67;;;;;;;;;;480394;247;27987;-73
2021/07/02 11:44:20;;;;;;;6.13;5.53;;;;;;;;;;480407;247;27487;-73
2021/07/02 11:46:23;;;;;;;6.37;5.70;;;;;;;;;;480387;247;27574;-73
2021/07/02 11:48:25;;;;;;;6.40;5.50;;;;;;;;;;480389;247;27618;-73
2021/07/02 11:50:27;;;;;;;6.10;5.50;;;;;;;;;;480420;247;27587;-73
2021/07/02 11:52:29;;;;;;;7.50;5.93;;;;;;;;;;480425;247;27587;-73
2021/07/02 11:54:31;;;;;;;6.20;5.53;;;;;;;;;;480412;247;27502;-73
2021/07/02 11:56:33;;;;;;;6.60;5.90;;;;;;;;;;480401;247;27504;-74
2021/07/02 11:58:35;;;;;;;8.00;6.00;;;;;;;;;;480420;247;27547;-73
2021/07/02 12:00:37;;;;;;;7.47;6.20;;;;;;;;;;480404;247;27539;-73
2021/07/02 12:02:39;;;;;;;7.23;6.30;;;;;;;;;;480398;247;27872;-74
2021/07/02 12:04:42;;;;;;;7.07;6.20;;;;;;;;;;480412;247;27556;-73
2021/07/02 12:06:44;;;;;;;6.40;5.80;;;;;;;;;;480358;247;27582;-73
2021/07/02 12:08:46;;;;;;;6.90;6.20;;;;;;;;;;480412;247;27498;-73
2021/07/02 12:10:48;;;;;;;5.73;5.23;;;;;;;;;;480335;247;27541;-74
2021/07/02 12:12:50;;;;;;;6.70;6.07;;;;;;;;;;480379;247;27541;-73
2021/07/02 12:14:52;;;;;;;6.40;5.60;;;;;;;;;;480357;247;27618;-73